Time;durP1;ratioP1;P1;durP2;ratioP2;P2;SDS_P1;SDS_P2;PMS_P1;PMS_P2;Temp;Humidity;BMP_temperature;BMP_pressure;BME280_temperature;BME280_humidity;BME280_pressure;Samples;Min_cycle;Max_cycle;Signal;HPM_P1;HPM_P2
2021/10/11 00:00:20;;;;;;;25.30;17.53;;;2.80;99.90;;;;;;4956577;29;20117;-76
2021/10/11 00:02:45;;;;;;;29.90;18.63;;;2.80;99.90;;;;;;4956924;28;20048;-75
2021/10/11 00:05:11;;;;;;;27.17;18.20;;;2.80;99.90;;;;;;4956553;28;20365;-76
2021/10/11 00:07:37;;;;;;;35.13;20.23;;;2.80;99.90;;;;;;4949911;29;20471;-75
2021/10/11 00:10:07;;;;;;;26.30;17.00;;;2.80;99.90;;;;;;4956562;29;20020;-75
2021/10/11 00:12:33;;;;;;;47.33;21.43;;;2.80;99.90;;;;;;4956643;29;20024;-75
2021/10/11 00:14:59;;;;;;;59.43;20.60;;;2.80;99.90;;;;;;4939281;29;20082;-75
2021/10/11 00:17:25;;;;;;;28.47;19.57;;;2.80;99.90;;;;;;4956501;29;20035;-75
2021/10/11 00:19:51;;;;;;;26.50;19.33;;;2.80;99.90;;;;;;4928700;29;20422;-75
2021/10/11 00:22:20;;;;;;;25.60;17.87;;;2.80;99.90;;;;;;4953385;29;20038;-76
2021/10/11 00:24:46;;;;;;;26.47;18.40;;;2.80;99.90;;;;;;4957024;29;20099;-74
2021/10/11 00:27:12;;;;;;;28.63;18.87;;;2.80;99.90;;;;;;4957217;29;20023;-74
2021/10/11 00:29:38;;;;;;;26.90;19.23;;;2.70;99.90;;;;;;4957411;29;20035;-74
2021/10/11 00:32:07;;;;;;;24.10;17.87;;;2.70;99.90;;;;;;4939784;29;20047;-74
2021/10/11 00:34:34;;;;;;;27.07;18.17;;;2.70;99.90;;;;;;4956897;29;20056;-73
2021/10/11 00:36:59;;;;;;;25.10;16.77;;;2.70;99.90;;;;;;4957211;29;20054;-74
2021/10/11 00:39:25;;;;;;;24.83;17.87;;;2.70;99.90;;;;;;4956834;29;20046;-73
2021/10/11 00:41:50;;;;;;;24.23;16.83;;;2.60;99.90;;;;;;4957370;29;20114;-74
2021/10/11 00:44:16;;;;;;;22.17;16.17;;;2.60;99.90;;;;;;4939394;29;20027;-74
2021/10/11 00:46:41;;;;;;;25.80;17.40;;;2.60;99.90;;;;;;4939430;29;20023;-74
2021/10/11 00:49:07;;;;;;;23.53;17.40;;;2.50;99.90;;;;;;4939679;29;20039;-74
2021/10/11 00:51:33;;;;;;;21.30;15.27;;;2.50;99.90;;;;;;4956694;29;20098;-74
2021/10/11 00:54:00;;;;;;;21.80;15.57;;;2.40;99.90;;;;;;4957221;29;20109;-74
2021/10/11 00:56:26;;;;;;;23.40;16.40;;;2.40;99.90;;;;;;4956517;29;20488;-73
2021/10/11 00:58:52;;;;;;;23.63;15.87;;;2.40;99.90;;;;;;4956670;29;20034;-74
2021/10/11 01:01:18;;;;;;;24.20;15.93;;;2.40;99.90;;;;;;4956416;29;20119;-74
2021/10/11 01:03:43;;;;;;;20.83;14.97;;;2.30;99.90;;;;;;4956383;29;20034;-74
2021/10/11 01:06:09;;;;;;;20.27;14.37;;;2.30;99.90;;;;;;4956541;29;20032;-73
2021/10/11 01:08:35;;;;;;;23.60;15.63;;;2.30;99.90;;;;;;4956439;29;20027;-73
2021/10/11 01:11:00;;;;;;;20.03;14.53;;;2.20;99.90;;;;;;4956217;29;20129;-74
2021/10/11 01:13:26;;;;;;;19.60;14.67;;;2.20;99.90;;;;;;4938678;29;20032;-74
2021/10/11 01:15:52;;;;;;;23.30;15.03;;;2.20;99.90;;;;;;4955833;28;20046;-74
2021/10/11 01:18:17;;;;;;;20.93;15.30;;;2.10;99.90;;;;;;4955771;29;20135;-74
2021/10/11 01:20:43;;;;;;;19.37;14.23;;;2.10;99.90;;;;;;4955974;29;20082;-74
2021/10/11 01:23:09;;;;;;;18.07;13.53;;;2.10;99.90;;;;;;4956121;29;20031;-74
2021/10/11 01:25:34;;;;;;;17.70;13.53;;;2.10;99.90;;;;;;4939240;29;20027;-73
2021/10/11 01:28:00;;;;;;;18.63;14.07;;;2.10;99.90;;;;;;4955812;29;20035;-74
2021/10/11 01:30:26;;;;;;;18.43;13.30;;;2.00;99.90;;;;;;4955928;29;20098;-74
2021/10/11 01:32:52;;;;;;;16.37;13.10;;;2.00;99.90;;;;;;4955680;29;20043;-73
2021/10/11 01:35:17;;;;;;;16.63;13.50;;;2.00;99.90;;;;;;4955799;29;20030;-74
2021/10/11 01:37:43;;;;;;;17.97;14.07;;;2.00;99.90;;;;;;4956337;29;20031;-73
2021/10/11 01:40:10;;;;;;;20.83;14.77;;;1.90;99.90;;;;;;4955814;29;20023;-73
2021/10/11 01:42:36;;;;;;;19.00;15.10;;;1.90;99.90;;;;;;4956229;29;20024;-73
2021/10/11 01:45:03;;;;;;;20.87;14.90;;;1.90;99.90;;;;;;4955611;29;20027;-74
2021/10/11 01:47:29;;;;;;;21.43;15.47;;;1.90;99.90;;;;;;4938291;29;20129;-73
2021/10/11 01:49:55;;;;;;;21.53;16.30;;;1.90;99.90;;;;;;4955435;29;20090;-73
2021/10/11 01:52:21;;;;;;;20.93;15.77;;;1.90;99.90;;;;;;4938169;29;20117;-73
2021/10/11 01:54:47;;;;;;;25.23;16.70;;;1.90;99.90;;;;;;4955452;29;20022;-73
2021/10/11 01:57:13;;;;;;;23.07;16.03;;;1.90;99.90;;;;;;4955310;29;20028;-73
2021/10/11 01:59:38;;;;;;;23.27;16.70;;;1.90;99.90;;;;;;4955337;29;20030;-73
2021/10/11 02:02:04;;;;;;;22.27;15.23;;;1.90;99.90;;;;;;4955372;29;20023;-74
2021/10/11 02:04:30;;;;;;;23.17;15.77;;;1.90;99.90;;;;;;4955105;29;20023;-73
2021/10/11 02:06:56;;;;;;;21.63;15.60;;;1.80;99.90;;;;;;4955548;29;20091;-73
2021/10/11 02:09:22;;;;;;;21.20;15.20;;;1.80;99.90;;;;;;4955026;29;20031;-74
2021/10/11 02:11:47;;;;;;;21.20;15.90;;;1.80;99.90;;;;;;4937880;29;20028;-73
2021/10/11 02:14:13;;;;;;;19.20;14.13;;;1.70;99.90;;;;;;4937813;29;20029;-74
2021/10/11 02:16:39;;;;;;;21.10;15.00;;;1.80;99.90;;;;;;4955179;29;20023;-74
2021/10/11 02:19:05;;;;;;;23.17;15.97;;;1.80;99.90;;;;;;4955083;29;20031;-74
2021/10/11 02:21:30;;;;;;;20.17;14.97;;;1.70;99.90;;;;;;4941944;29;20039;-73
2021/10/11 02:23:56;;;;;;;21.40;14.70;;;1.70;99.90;;;;;;4936006;29;20373;-73
2021/10/11 02:26:23;;;;;;;20.97;14.67;;;1.80;99.90;;;;;;4946879;29;20061;-73
2021/10/11 02:28:52;;;;;;;19.47;14.47;;;1.70;99.90;;;;;;4954131;28;20023;-73
2021/10/11 02:31:18;;;;;;;19.90;13.77;;;1.70;99.90;;;;;;4954709;29;20054;-74
2021/10/11 02:33:44;;;;;;;19.87;14.63;;;1.70;99.90;;;;;;4937650;29;20030;-74
2021/10/11 02:36:11;;;;;;;18.57;14.53;;;1.80;99.90;;;;;;4955064;29;20020;-73
2021/10/11 02:38:37;;;;;;;18.37;14.30;;;1.70;99.90;;;;;;4954988;29;20103;-74
2021/10/11 02:41:03;;;;;;;19.20;13.47;;;1.80;99.90;;;;;;4955009;29;20027;-73
2021/10/11 02:43:28;;;;;;;17.00;13.93;;;1.70;99.90;;;;;;4937660;29;20038;-74
2021/10/11 02:45:54;;;;;;;20.63;15.00;;;1.70;99.90;;;;;;4937366;29;20058;-76
2021/10/11 02:48:20;;;;;;;18.60;14.47;;;1.70;99.90;;;;;;4937757;29;20049;-76
2021/10/11 02:50:46;;;;;;;20.80;15.50;;;1.70;99.90;;;;;;4954356;29;20024;-76
2021/10/11 02:53:11;;;;;;;21.77;14.97;;;1.70;99.90;;;;;;4954238;29;20124;-76
2021/10/11 02:55:37;;;;;;;21.47;15.50;;;1.70;99.90;;;;;;4953869;29;20452;-75
2021/10/11 02:58:02;;;;;;;21.30;14.67;;;1.60;99.90;;;;;;4953150;29;20032;-74
2021/10/11 03:00:28;;;;;;;17.60;13.70;;;1.60;99.90;;;;;;4953487;29;20023;-75
2021/10/11 03:02:54;;;;;;;19.23;13.67;;;1.60;99.90;;;;;;4953489;29;20027;-73
2021/10/11 03:05:19;;;;;;;17.13;13.47;;;1.60;99.90;;;;;;4937384;29;20054;-73
2021/10/11 03:07:45;;;;;;;18.67;13.67;;;1.60;99.90;;;;;;4954111;29;20063;-75
2021/10/11 03:10:10;;;;;;;15.67;12.43;;;1.60;99.90;;;;;;4936816;29;20494;-75
2021/10/11 03:12:36;;;;;;;16.97;12.83;;;1.60;99.90;;;;;;4954099;29;20032;-75
2021/10/11 03:15:07;;;;;;;17.80;13.13;;;1.50;99.90;;;;;;4953931;28;20086;-75
2021/10/11 03:17:33;;;;;;;17.30;13.30;;;1.50;99.90;;;;;;4953962;29;20031;-75
2021/10/11 03:19:58;;;;;;;19.63;13.27;;;1.50;99.90;;;;;;4953895;29;20027;-74
2021/10/11 03:22:26;;;;;;;18.17;12.53;;;1.50;99.90;;;;;;4954183;29;20039;-75
2021/10/11 03:24:52;;;;;;;15.23;12.37;;;1.50;99.90;;;;;;4953974;28;20034;-75
2021/10/11 03:27:18;;;;;;;15.80;12.27;;;1.50;99.90;;;;;;4953838;29;20035;-75
2021/10/11 03:29:43;;;;;;;17.67;13.40;;;1.50;99.90;;;;;;4953897;29;20713;-75
2021/10/11 03:32:09;;;;;;;20.67;14.43;;;1.50;99.90;;;;;;4953845;29;20119;-75
2021/10/11 03:34:34;;;;;;;17.57;13.57;;;1.50;99.90;;;;;;4953893;29;20035;-74
2021/10/11 03:37:00;;;;;;;16.43;12.90;;;1.50;99.90;;;;;;4938736;29;20055;-73
2021/10/11 03:39:25;;;;;;;15.93;12.83;;;1.50;99.90;;;;;;4955018;28;20376;-73
2021/10/11 03:41:51;;;;;;;16.63;13.13;;;1.50;99.90;;;;;;4958247;29;20043;-73
2021/10/11 03:44:17;;;;;;;16.63;12.67;;;1.40;99.90;;;;;;4957973;29;20062;-73
2021/10/11 03:46:42;;;;;;;15.47;11.83;;;1.40;99.90;;;;;;4957910;29;20039;-73
2021/10/11 03:49:08;;;;;;;17.77;13.30;;;1.40;99.90;;;;;;4957908;29;20093;-73
2021/10/11 03:51:34;;;;;;;18.97;12.00;;;1.40;99.90;;;;;;4957571;29;20027;-73
2021/10/11 03:53:59;;;;;;;16.87;13.03;;;1.40;99.90;;;;;;4958104;29;20035;-73
2021/10/11 03:56:26;;;;;;;15.43;12.03;;;1.40;99.90;;;;;;4957493;29;20034;-73
2021/10/11 03:58:52;;;;;;;15.53;12.00;;;1.40;99.90;;;;;;4957805;29;20031;-73
2021/10/11 04:01:17;;;;;;;15.13;12.00;;;1.40;99.90;;;;;;4957632;29;20027;-73
2021/10/11 04:03:43;;;;;;;18.23;12.47;;;1.40;99.90;;;;;;4957672;29;20031;-73
2021/10/11 04:06:09;;;;;;;20.23;12.10;;;1.30;99.90;;;;;;4957855;29;20023;-73
2021/10/11 04:08:43;;;;;;;19.43;12.60;;;1.30;99.90;;;;;;4957475;29;20119;-73
2021/10/11 04:11:11;;;;;;;15.43;11.73;;;1.30;99.90;;;;;;4940123;29;20037;-73
2021/10/11 04:13:38;;;;;;;13.67;10.80;;;1.30;99.90;;;;;;4957448;29;20078;-73
2021/10/11 04:16:05;;;;;;;15.63;12.00;;;1.30;99.90;;;;;;4957287;29;20031;-73
2021/10/11 04:18:31;;;;;;;15.63;12.10;;;1.30;99.90;;;;;;4957614;29;20069;-73
2021/10/11 04:20:56;;;;;;;14.67;11.17;;;1.30;99.90;;;;;;4957206;29;20027;-73
2021/10/11 04:23:22;;;;;;;15.47;12.13;;;1.30;99.90;;;;;;4940904;29;20155;-73
2021/10/11 04:25:48;;;;;;;18.53;11.60;;;1.30;99.90;;;;;;4966613;28;20460;-73
2021/10/11 04:28:15;;;;;;;13.77;11.00;;;1.30;99.90;;;;;;4974994;28;20038;-73
2021/10/11 04:30:42;;;;;;;16.43;12.93;;;1.20;99.90;;;;;;4956482;28;20110;-75
2021/10/11 04:33:08;;;;;;;19.43;12.90;;;1.20;99.90;;;;;;4951275;28;20400;-75
2021/10/11 04:35:34;;;;;;;16.40;11.67;;;1.20;99.90;;;;;;4953360;29;20055;-75
2021/10/11 04:37:59;;;;;;;48.40;13.93;;;1.20;99.90;;;;;;4955424;29;20061;-75
2021/10/11 04:40:25;;;;;;;26.83;13.13;;;1.20;99.90;;;;;;4953993;28;20073;-75
2021/10/11 04:42:50;;;;;;;34.37;13.80;;;1.30;99.90;;;;;;4951644;28;20058;-75
2021/10/11 04:45:17;;;;;;;36.20;12.63;;;1.30;99.90;;;;;;4955942;29;20039;-75
2021/10/11 04:47:42;;;;;;;19.30;12.73;;;1.40;99.90;;;;;;4955723;29;20031;-75
2021/10/11 04:50:08;;;;;;;21.43;12.30;;;1.30;99.90;;;;;;4955672;28;20038;-75
2021/10/11 04:52:34;;;;;;;14.70;11.47;;;1.40;99.90;;;;;;4934391;29;20024;-75
2021/10/11 04:55:00;;;;;;;16.00;11.57;;;1.40;99.90;;;;;;4954537;29;20479;-75
2021/10/11 04:57:26;;;;;;;16.97;11.77;;;1.30;99.90;;;;;;4955566;29;20038;-75
2021/10/11 04:59:51;;;;;;;18.67;11.77;;;1.40;99.90;;;;;;4953685;29;20027;-75
2021/10/11 05:02:18;;;;;;;16.70;12.57;;;1.40;99.90;;;;;;4949576;28;20027;-75
2021/10/11 05:04:44;;;;;;;16.33;11.40;;;1.40;99.90;;;;;;4935903;28;20389;-75
2021/10/11 05:07:10;;;;;;;16.90;11.43;;;1.30;99.90;;;;;;4939998;29;20034;-75
2021/10/11 05:09:35;;;;;;;16.23;12.00;;;1.30;99.90;;;;;;4940391;28;20036;-75
2021/10/11 05:12:01;;;;;;;15.67;12.03;;;1.30;99.90;;;;;;4942287;29;20131;-75
2021/10/11 05:14:27;;;;;;;16.43;12.23;;;1.30;99.90;;;;;;4943494;28;20023;-75
2021/10/11 05:16:54;;;;;;;15.73;11.30;;;1.30;99.90;;;;;;4949143;28;20139;-75
2021/10/11 05:19:25;;;;;;;18.77;12.53;;;1.30;99.90;;;;;;4952176;29;20019;-75
2021/10/11 05:21:51;;;;;;;17.60;13.20;;;1.30;99.90;;;;;;4952436;29;20118;-75
2021/10/11 05:24:17;;;;;;;15.83;12.07;;;1.30;99.90;;;;;;4952183;29;20038;-75
2021/10/11 05:26:43;;;;;;;16.57;12.43;;;1.30;99.90;;;;;;4952460;29;20094;-75
2021/10/11 05:29:09;;;;;;;18.43;13.07;;;1.30;99.90;;;;;;4952145;29;20063;-75
2021/10/11 05:31:34;;;;;;;18.40;13.07;;;1.40;99.90;;;;;;4951965;29;20046;-75
2021/10/11 05:34:00;;;;;;;20.80;12.30;;;1.40;99.90;;;;;;4951967;29;20027;-75
2021/10/11 05:36:27;;;;;;;18.27;13.23;;;1.40;99.90;;;;;;4952943;29;20090;-75
2021/10/11 05:38:53;;;;;;;21.07;12.83;;;1.40;99.90;;;;;;4954413;29;20027;-74
2021/10/11 05:41:19;;;;;;;20.30;13.50;;;1.40;99.90;;;;;;4954745;29;20031;-75
2021/10/11 05:43:45;;;;;;;19.37;12.87;;;1.40;99.90;;;;;;4951818;29;20082;-73
2021/10/11 05:46:10;;;;;;;19.93;12.53;;;1.50;99.90;;;;;;4937915;29;20037;-73
2021/10/11 05:48:36;;;;;;;16.57;12.43;;;1.50;99.90;;;;;;4955241;29;20051;-73
2021/10/11 05:51:02;;;;;;;16.63;12.63;;;1.50;99.90;;;;;;4954347;28;20197;-73
2021/10/11 05:53:27;;;;;;;17.60;12.20;;;1.50;99.90;;;;;;4953765;29;20026;-72
2021/10/11 05:55:53;;;;;;;18.53;12.30;;;1.60;99.90;;;;;;4955344;29;20020;-73
2021/10/11 05:58:19;;;;;;;17.27;11.03;;;1.60;99.90;;;;;;4961525;28;20045;-73
2021/10/11 06:00:44;;;;;;;19.17;11.17;;;1.60;99.90;;;;;;4960235;28;20106;-73
2021/10/11 06:03:10;;;;;;;16.30;10.67;;;1.70;99.90;;;;;;4959300;28;20058;-73
2021/10/11 06:05:35;;;;;;;18.10;11.03;;;1.70;99.90;;;;;;4960008;28;20042;-73
2021/10/11 06:08:01;;;;;;;16.50;12.10;;;1.70;99.90;;;;;;4963969;28;20503;-76
2021/10/11 06:10:27;;;;;;;17.80;11.43;;;1.70;99.90;;;;;;4951504;29;20027;-72
2021/10/11 06:12:53;;;;;;;16.63;11.03;;;1.80;99.90;;;;;;4949527;29;20055;-75
2021/10/11 06:15:19;;;;;;;17.17;11.40;;;1.80;99.90;;;;;;4927368;29;20022;-76
2021/10/11 06:17:45;;;;;;;19.97;11.33;;;1.80;99.90;;;;;;4932639;29;20119;-75
2021/10/11 06:20:11;;;;;;;15.27;9.90;;;1.90;99.90;;;;;;4932763;29;20036;-76
2021/10/11 06:22:36;;;;;;;15.63;10.20;;;2.00;99.90;;;;;;4929227;29;20100;-76
2021/10/11 06:25:04;;;;;;;12.33;9.03;;;2.00;99.90;;;;;;4948265;29;20083;-72
2021/10/11 06:27:30;;;;;;;12.27;8.70;;;2.10;99.90;;;;;;4954425;29;20029;-72
2021/10/11 06:29:56;;;;;;;14.27;9.27;;;2.20;99.90;;;;;;4954625;29;20035;-72
2021/10/11 06:32:22;;;;;;;14.27;8.77;;;2.20;99.90;;;;;;4954869;29;20048;-72
2021/10/11 06:34:47;;;;;;;13.60;9.20;;;2.30;99.90;;;;;;4953930;29;20122;-75
2021/10/11 06:37:13;;;;;;;12.50;9.63;;;2.30;99.90;;;;;;4930964;29;20357;-76
2021/10/11 06:39:38;;;;;;;11.67;8.63;;;2.40;99.90;;;;;;4948340;29;20035;-76
2021/10/11 06:42:04;;;;;;;14.07;9.80;;;2.40;99.90;;;;;;4936520;29;20030;-76
2021/10/11 06:44:31;;;;;;;14.97;9.10;;;2.50;99.90;;;;;;4929601;29;20031;-76
2021/10/11 06:46:56;;;;;;;11.80;8.83;;;2.60;99.90;;;;;;4933265;29;20060;-76
2021/10/11 06:49:22;;;;;;;12.17;9.20;;;2.60;99.90;;;;;;4932456;29;20126;-76
2021/10/11 06:51:48;;;;;;;18.40;9.73;;;2.70;99.90;;;;;;4934189;29;20086;-77
2021/10/11 06:54:14;;;;;;;14.13;9.93;;;2.80;99.90;;;;;;4929147;29;20437;-76
2021/10/11 06:56:40;;;;;;;14.50;9.40;;;2.80;99.90;;;;;;4929307;29;20020;-77
2021/10/11 06:59:05;;;;;;;14.87;10.23;;;2.90;99.90;;;;;;4928725;29;20031;-77
2021/10/11 07:01:31;;;;;;;13.00;9.90;;;3.00;99.90;;;;;;4933758;29;20705;-76
2021/10/11 07:03:57;;;;;;;13.90;9.67;;;3.10;99.90;;;;;;4940241;29;20107;-77
2021/10/11 07:06:24;;;;;;;14.03;10.47;;;3.20;99.90;;;;;;4947767;29;20035;-76
2021/10/11 07:08:50;;;;;;;14.40;9.73;;;3.30;99.90;;;;;;4949998;28;20456;-72
2021/10/11 07:11:15;;;;;;;12.97;9.33;;;3.50;99.90;;;;;;4955379;29;20033;-73
2021/10/11 07:13:41;;;;;;;13.17;9.80;;;3.60;99.90;;;;;;4955046;28;20046;-73
2021/10/11 07:16:07;;;;;;;14.93;9.67;;;3.70;99.90;;;;;;4958220;29;20432;-73
2021/10/11 07:18:33;;;;;;;15.27;10.43;;;3.80;99.90;;;;;;4958205;29;20379;-73
2021/10/11 07:21:04;;;;;;;13.87;10.10;;;3.90;99.90;;;;;;4954867;29;20086;-74
2021/10/11 07:23:30;;;;;;;15.80;9.43;;;4.00;99.90;;;;;;4957253;28;20023;-74
2021/10/11 07:25:57;;;;;;;17.63;9.23;;;4.20;99.90;;;;;;4956960;29;20027;-73
2021/10/11 07:28:23;;;;;;;14.23;8.87;;;4.30;99.90;;;;;;4956900;29;20453;-74
2021/10/11 07:30:49;;;;;;;11.87;8.97;;;4.50;99.90;;;;;;4957363;29;20027;-73
2021/10/11 07:33:14;;;;;;;12.47;8.47;;;4.70;99.90;;;;;;4958507;29;20030;-73
2021/10/11 07:35:40;;;;;;;13.47;8.97;;;4.80;99.90;;;;;;4958284;29;20024;-73
2021/10/11 07:38:06;;;;;;;14.93;9.57;;;4.90;99.90;;;;;;4958494;29;20066;-73
2021/10/11 07:40:32;;;;;;;13.10;9.13;;;5.00;99.90;;;;;;4958431;29;20057;-72
2021/10/11 07:42:57;;;;;;;15.97;9.37;;;5.10;99.90;;;;;;4958234;29;20039;-72
2021/10/11 07:45:23;;;;;;;23.13;10.40;;;5.20;99.90;;;;;;4957974;29;20130;-72
2021/10/11 07:47:49;;;;;;;14.73;8.90;;;5.30;99.90;;;;;;4958659;28;20026;-73
2021/10/11 07:50:15;;;;;;;19.63;10.20;;;5.40;99.90;;;;;;4961064;28;20023;-73
2021/10/11 07:52:41;;;;;;;19.83;10.17;;;5.60;99.90;;;;;;4961550;28;20395;-73
2021/10/11 07:55:07;;;;;;;14.97;9.63;;;5.70;99.90;;;;;;4964057;28;20101;-73
2021/10/11 07:57:33;;;;;;;15.33;9.73;;;5.80;99.90;;;;;;4959749;28;20298;-73
2021/10/11 08:00:25;;;;;;;16.83;9.73;;;5.90;99.90;;;;;;4957522;29;20094;-73
2021/10/11 08:02:51;;;;;;;15.47;9.10;;;6.10;99.90;;;;;;4939416;29;20440;-73
2021/10/11 08:05:16;;;;;;;13.80;9.07;;;6.20;99.90;;;;;;4938349;29;20107;-73
2021/10/11 08:07:42;;;;;;;15.57;10.37;;;6.30;99.90;;;;;;4936913;29;20102;-73
2021/10/11 08:10:09;;;;;;;16.20;10.67;;;6.40;99.90;;;;;;4951735;28;20023;-73
2021/10/11 08:12:35;;;;;;;18.87;9.97;;;6.60;99.90;;;;;;4977174;28;20073;-73
2021/10/11 08:15:01;;;;;;;16.10;10.27;;;6.70;99.90;;;;;;4940414;29;20031;-76
2021/10/11 08:17:26;;;;;;;16.40;10.83;;;6.80;99.90;;;;;;4932409;29;20024;-77
2021/10/11 08:19:52;;;;;;;16.60;10.70;;;6.90;99.90;;;;;;4934735;29;20027;-77
2021/10/11 08:22:20;;;;;;;17.97;10.27;;;7.10;99.90;;;;;;4933788;29;20028;-77
2021/10/11 08:24:47;;;;;;;18.23;10.93;;;7.10;99.90;;;;;;4934539;29;20131;-78
2021/10/11 08:27:16;;;;;;;16.20;10.93;;;7.30;99.90;;;;;;4941165;28;20058;-77
2021/10/11 08:29:51;;;;;;;32.73;12.87;;;7.40;99.90;;;;;;4935229;29;20023;-78
2021/10/11 08:32:21;;;;;;;21.13;11.98;;;7.50;99.90;;;;;;4940646;28;20035;-77
2021/10/11 08:34:47;;;;;;;27.33;14.33;;;7.70;99.90;;;;;;4939106;29;20107;-77
2021/10/11 08:37:13;;;;;;;23.43;12.70;;;7.80;99.90;;;;;;4941283;29;20106;-77
2021/10/11 08:39:39;;;;;;;19.13;11.60;;;7.90;99.90;;;;;;4943079;29;20642;-77
2021/10/11 08:42:05;;;;;;;16.93;11.93;;;8.10;99.90;;;;;;4938015;29;20035;-77
2021/10/11 08:44:31;;;;;;;22.07;12.90;;;8.20;99.90;;;;;;4940433;29;20165;-78
2021/10/11 08:46:58;;;;;;;16.03;11.47;;;8.30;99.90;;;;;;4949881;29;20031;-77
2021/10/11 08:49:25;;;;;;;17.27;11.97;;;8.40;99.90;;;;;;4949886;29;20066;-77
2021/10/11 08:51:50;;;;;;;15.90;10.93;;;8.50;99.90;;;;;;4949901;29;20093;-77
2021/10/11 08:54:16;;;;;;;15.07;10.97;;;8.60;99.90;;;;;;4949801;29;20027;-76
2021/10/11 08:56:41;;;;;;;16.13;11.30;;;8.70;99.90;;;;;;4949927;29;20134;-77
2021/10/11 08:59:07;;;;;;;17.07;11.83;;;8.90;99.90;;;;;;4949942;29;20035;-77
2021/10/11 09:01:34;;;;;;;18.40;11.70;;;9.10;99.90;;;;;;4949951;28;20031;-77
2021/10/11 09:04:14;;;;;;;17.70;11.70;;;9.20;99.90;;;;;;4949870;29;20050;-77
2021/10/11 09:06:46;;;;;;;18.00;11.70;;;9.40;99.90;;;;;;4949686;29;20026;-77
2021/10/11 09:09:11;;;;;;;17.40;11.53;;;9.50;99.90;;;;;;4949442;29;20027;-76
2021/10/11 09:11:37;;;;;;;16.63;11.07;;;9.70;99.90;;;;;;4949750;29;20435;-77
2021/10/11 09:14:04;;;;;;;16.10;11.67;;;9.80;99.90;;;;;;4949488;29;20102;-77
2021/10/11 09:16:32;;;;;;;18.38;11.05;;;9.90;99.90;;;;;;4940657;29;20028;-77
2021/10/11 09:19:12;;;;;;;16.02;11.60;;;9.90;99.90;;;;;;4933947;29;20024;-73
2021/10/11 09:21:38;;;;;;;20.08;11.45;;;10.00;99.90;;;;;;4937261;29;20114;-73
2021/10/11 09:24:12;;;;;;;16.87;10.87;;;10.00;99.90;;;;;;4936864;29;20032;-73
2021/10/11 09:26:48;;;;;;;14.63;11.03;;;10.20;99.90;;;;;;4936023;29;20035;-73
2021/10/11 09:29:16;;;;;;;14.05;10.50;;;10.30;99.90;;;;;;4937373;29;20330;-73
2021/10/11 09:31:47;;;;;;;18.52;12.13;;;10.50;99.90;;;;;;4934938;29;20047;-73
2021/10/11 09:34:19;;;;;;;16.38;11.70;;;10.60;99.90;;;;;;4955020;29;20078;-74
2021/10/11 09:36:56;;;;;;;15.55;11.60;;;10.70;99.90;;;;;;4951891;28;20020;-74
2021/10/11 09:39:23;;;;;;;18.08;11.80;;;10.70;99.90;;;;;;4932334;29;20032;-78
2021/10/11 09:41:52;;;;;;;16.00;11.23;;;10.90;99.90;;;;;;4935657;29;20027;-77
2021/10/11 09:44:18;;;;;;;20.70;11.95;;;11.00;99.90;;;;;;4930768;29;20031;-78
2021/10/11 09:46:47;;;;;;;23.67;11.98;;;11.10;99.90;;;;;;4930654;29;20023;-77
2021/10/11 09:49:15;;;;;;;23.92;12.85;;;11.10;99.90;;;;;;4937591;29;20082;-77
2021/10/11 09:51:41;;;;;;;18.63;12.45;;;11.10;99.90;;;;;;4930116;29;20036;-78
2021/10/11 09:54:08;;;;;;;18.38;12.27;;;11.30;99.90;;;;;;4934445;29;20086;-77
2021/10/11 09:56:33;;;;;;;16.90;12.65;;;11.40;99.90;;;;;;4936692;29;20027;-77
2021/10/11 09:59:03;;;;;;;19.27;12.13;;;11.40;99.90;;;;;;4949009;29;20052;-77
2021/10/11 10:01:31;;;;;;;19.55;12.10;;;11.50;99.90;;;;;;4931692;29;20400;-78
2021/10/11 10:03:58;;;;;;;17.63;11.70;;;11.60;99.90;;;;;;4948734;29;20030;-77
2021/10/11 10:06:30;;;;;;;14.45;9.95;;;11.80;99.90;;;;;;4948120;29;20152;-77
2021/10/11 10:08:58;;;;;;;16.48;10.65;;;12.00;99.90;;;;;;4942911;29;20066;-77
2021/10/11 10:11:30;;;;;;;17.40;10.32;;;12.10;99.90;;;;;;4933995;29;20035;-78
2021/10/11 10:13:55;;;;;;;15.45;10.10;;;12.00;99.90;;;;;;4930867;29;20091;-78
2021/10/11 10:16:21;;;;;;;17.77;10.60;;;12.10;99.90;;;;;;4948717;28;20051;-74
2021/10/11 10:18:47;;;;;;;16.63;10.32;;;12.30;99.90;;;;;;4952547;28;20035;-74
2021/10/11 10:21:15;;;;;;;16.38;10.60;;;12.30;99.90;;;;;;4953044;28;20035;-74
2021/10/11 10:23:55;;;;;;;15.80;9.85;;;12.60;99.90;;;;;;4936017;29;20406;-74
2021/10/11 10:26:35;;;;;;;19.15;9.85;;;12.70;99.90;;;;;;4935921;29;20023;-74
2021/10/11 10:29:20;;;;;;;15.73;10.05;;;12.70;99.90;;;;;;4936267;29;20111;-74
2021/10/11 10:31:46;;;;;;;14.52;9.20;;;12.80;99.90;;;;;;4936160;29;20116;-74
2021/10/11 10:34:18;;;;;;;17.33;8.77;;;12.70;99.90;;;;;;4919020;29;20031;-73
2021/10/11 10:36:46;;;;;;;14.85;8.73;;;12.60;99.90;;;;;;4966345;28;20107;-73
2021/10/11 10:39:14;;;;;;;16.77;9.20;;;12.70;99.90;;;;;;4973736;28;20023;-73
2021/10/11 10:41:55;;;;;;;11.88;8.00;;;12.80;99.90;;;;;;4974921;28;20035;-73
2021/10/11 10:44:21;;;;;;;13.40;9.07;;;12.80;99.90;;;;;;4974589;28;20023;-73
2021/10/11 10:46:54;;;;;;;11.00;8.48;;;12.90;99.90;;;;;;4974715;28;20030;-74
2021/10/11 10:49:27;;;;;;;15.52;8.55;;;13.00;99.90;;;;;;4958292;28;20023;-75
2021/10/11 10:51:53;;;;;;;13.48;8.60;;;13.00;99.90;;;;;;4959170;29;20495;-73
2021/10/11 10:54:20;;;;;;;15.50;9.73;;;13.20;99.90;;;;;;4959169;29;20035;-74
2021/10/11 10:56:53;;;;;;;11.77;7.97;;;13.30;99.90;;;;;;4959335;29;20041;-74
2021/10/11 10:59:24;;;;;;;15.10;8.07;;;13.40;99.90;;;;;;4958932;29;20023;-73
2021/10/11 11:01:49;;;;;;;12.38;7.63;;;13.50;99.90;;;;;;4958080;29;20027;-74
2021/10/11 11:04:21;;;;;;;12.15;7.35;;;13.60;99.90;;;;;;4957347;29;20460;-74
2021/10/11 11:06:59;;;;;;;15.55;7.93;;;13.70;99.90;;;;;;4957446;29;20023;-74
2021/10/11 11:09:24;;;;;;;15.80;8.18;;;13.70;99.90;;;;;;4958016;28;20031;-74
2021/10/11 11:11:50;;;;;;;14.10;7.80;;;13.60;99.90;;;;;;4958743;28;20027;-75
2021/10/11 11:14:15;;;;;;;13.23;8.05;;;13.40;99.90;;;;;;4957596;29;20034;-74
2021/10/11 11:16:41;;;;;;;20.52;9.18;;;13.30;99.90;;;;;;4941880;29;20476;-74
2021/10/11 11:19:09;;;;;;;18.38;8.43;;;13.30;99.90;;;;;;4957432;29;20344;-74
2021/10/11 11:21:35;;;;;;;12.77;8.00;;;13.30;99.90;;;;;;4957062;29;20466;-74
2021/10/11 11:24:05;;;;;;;13.88;7.80;;;13.30;99.90;;;;;;4957135;29;20035;-74
2021/10/11 11:26:30;;;;;;;14.70;8.65;;;13.50;99.90;;;;;;4958611;28;20090;-74
2021/10/11 11:28:57;;;;;;;12.20;8.05;;;13.50;99.90;;;;;;4968892;28;20508;-73
2021/10/11 11:31:22;;;;;;;17.00;9.18;;;13.70;99.90;;;;;;4946248;29;20122;-73
2021/10/11 11:33:49;;;;;;;11.80;7.20;;;13.80;99.90;;;;;;4955940;28;20135;-74
2021/10/11 11:36:16;;;;;;;13.38;7.90;;;13.80;99.90;;;;;;4951723;29;20038;-74
2021/10/11 11:38:42;;;;;;;14.50;7.90;;;13.80;99.90;;;;;;4943579;28;20035;-74
2021/10/11 11:41:08;;;;;;;11.07;7.93;;;13.90;99.90;;;;;;4950274;29;20091;-74
2021/10/11 11:43:39;;;;;;;17.00;8.15;;;13.70;99.90;;;;;;4956646;29;20027;-75
2021/10/11 11:46:06;;;;;;;10.95;8.02;;;13.90;99.90;;;;;;4949638;28;20075;-74
2021/10/11 11:48:37;;;;;;;11.55;7.25;;;14.10;99.90;;;;;;4946908;28;20408;-74
2021/10/11 11:51:09;;;;;;;17.42;7.30;;;14.20;99.90;;;;;;4950350;28;20087;-74
2021/10/11 11:53:36;;;;;;;14.95;7.78;;;14.10;99.90;;;;;;4951146;29;20019;-74
2021/10/11 11:56:04;;;;;;;13.88;7.82;;;14.20;99.90;;;;;;4949743;28;20441;-74
2021/10/11 11:58:32;;;;;;;12.95;8.10;;;14.40;99.90;;;;;;4954417;29;20086;-74
2021/10/11 12:01:10;;;;;;;11.65;6.47;;;14.50;99.90;;;;;;4944323;29;20039;-74
2021/10/11 12:03:44;;;;;;;9.80;7.03;;;14.40;99.90;;;;;;4950349;29;20024;-74
2021/10/11 12:06:10;;;;;;;13.57;7.65;;;14.40;99.90;;;;;;4942130;29;20034;-74
2021/10/11 12:08:36;;;;;;;11.95;7.07;;;14.60;99.90;;;;;;4952067;29;20102;-74
2021/10/11 12:11:03;;;;;;;12.43;7.90;;;14.60;99.90;;;;;;4934562;29;20018;-74
2021/10/11 12:13:35;;;;;;;13.52;7.97;;;14.50;99.90;;;;;;4955354;29;20062;-74
2021/10/11 12:16:24;;;;;;;12.27;8.02;;;14.50;99.90;;;;;;4961986;28;20456;-74
2021/10/11 12:18:52;;;;;;;11.80;7.82;;;14.50;99.90;;;;;;4947143;29;20035;-74
2021/10/11 12:21:27;;;;;;;11.63;6.88;;;14.50;99.90;;;;;;4933918;29;20469;-74
2021/10/11 12:23:55;;;;;;;10.75;6.45;;;14.60;99.90;;;;;;4954761;29;20023;-74
2021/10/11 12:26:23;;;;;;;13.18;6.47;;;14.50;99.90;;;;;;4933892;29;20050;-74
2021/10/11 12:28:53;;;;;;;11.75;6.55;;;14.50;99.90;;;;;;4951118;29;20033;-75
2021/10/11 12:31:25;;;;;;;10.00;5.32;;;14.60;99.90;;;;;;4951379;29;20075;-74
2021/10/11 12:33:52;;;;;;;6.88;4.97;;;14.50;99.90;;;;;;4922638;29;20337;-74
2021/10/11 12:36:19;;;;;;;11.70;5.65;;;14.40;99.90;;;;;;4941853;29;20055;-74